Terminal Aerodrome Forecast
Issued by NWS

Home | Current Version | Previous Version | Text Only | Print | Product List | Glossary On
Versions: 1 2 3 4 5 6 7 8 9 10 11 12 13 14
206
FTUS45 KRIW 231120
TAFCPR
TAF
KCPR 231120Z 2312/2412 22014G20KT P6SM BKN080 WS020/23040KT
     FM232000 26011KT P6SM VCSH SCT030 BKN050
     FM232200 01010KT 5SM -SN SCT025 BKN040
     FM240000 02010G15KT 1SM -SN SCT015 OVC025=

USA.gov is the U.S. government's official web portal to all federal, state and local government web resources and services.